createdAt,value
2023-01-09T00:00:50.995Z,3.17
2023-01-09T00:03:18.960Z,3.40
2023-01-09T00:05:46.464Z,3.67
2023-01-09T00:08:13.904Z,2.80
2023-01-09T00:10:41.409Z,2.10
2023-01-09T00:13:11.815Z,1.43
2023-01-09T00:15:39.359Z,1.23
2023-01-09T00:18:06.885Z,1.27
2023-01-09T00:20:34.337Z,0.90
2023-01-09T00:23:01.824Z,0.80
2023-01-09T00:25:29.250Z,0.80
2023-01-09T00:27:56.717Z,0.77
2023-01-09T00:30:25.544Z,1.00
2023-01-09T00:32:53.087Z,0.90
2023-01-09T00:35:20.548Z,0.90
2023-01-09T00:37:48.001Z,1.03
2023-01-09T00:40:15.886Z,0.93
2023-01-09T00:42:43.991Z,1.17
2023-01-09T00:45:14.817Z,0.90
2023-01-09T00:47:46.038Z,0.90
2023-01-09T00:50:15.554Z,0.80
2023-01-09T00:52:43.466Z,0.60
2023-01-09T00:55:11.014Z,0.70
2023-01-09T00:57:38.553Z,0.80
2023-01-09T01:00:06.599Z,0.80
2023-01-09T01:02:34.058Z,0.63
2023-01-09T01:05:20.458Z,0.90
2023-01-09T01:07:48.107Z,0.87
2023-01-09T01:10:16.870Z,0.90
2023-01-09T01:12:44.834Z,0.87
2023-01-09T01:15:12.676Z,0.90
2023-01-09T01:17:40.657Z,0.83
2023-01-09T01:20:10.877Z,1.00
2023-01-09T01:22:38.376Z,1.20
2023-01-09T01:25:06.333Z,0.90
2023-01-09T01:27:33.894Z,0.80
2023-01-09T01:30:01.575Z,0.90
2023-01-09T01:32:29.115Z,0.90
2023-01-09T01:34:56.607Z,0.83
2023-01-09T01:37:25.740Z,1.00
2023-01-09T01:39:53.244Z,1.10
2023-01-09T01:42:20.842Z,1.10
2023-01-09T01:45:07.055Z,0.87
2023-01-09T01:47:47.260Z,1.00
2023-01-09T01:50:18.424Z,0.90
2023-01-09T01:52:51.831Z,0.90
2023-01-09T01:55:19.637Z,1.10
2023-01-09T01:57:49.491Z,0.80
2023-01-09T02:00:17.832Z,0.97
2023-01-09T02:02:45.944Z,1.00
2023-01-09T02:05:13.641Z,0.70
2023-01-09T02:07:41.175Z,0.77
2023-01-09T02:10:10.823Z,0.70
2023-01-09T02:12:38.366Z,0.70
2023-01-09T02:15:07.417Z,0.87
2023-01-09T02:17:45.107Z,0.67
2023-01-09T02:20:27.454Z,0.87
2023-01-09T02:23:02.169Z,0.60
2023-01-09T02:25:49.187Z,0.80
2023-01-09T02:28:32.087Z,0.80
2023-01-09T02:31:05.173Z,0.90
2023-01-09T02:33:40.299Z,0.60
2023-01-09T02:36:23.550Z,0.70
2023-01-09T02:38:55.679Z,0.83
2023-01-09T02:41:25.325Z,0.73
2023-01-09T02:44:02.953Z,0.70
2023-01-09T02:46:31.787Z,0.70
2023-01-09T02:48:59.291Z,0.80
2023-01-09T02:51:30.996Z,0.70
2023-01-09T02:54:02.830Z,0.60
2023-01-09T02:56:36.432Z,0.60
2023-01-09T02:59:22.387Z,0.70
2023-01-09T03:01:56.377Z,0.60
2023-01-09T03:04:27.687Z,0.60
2023-01-09T03:06:58.863Z,0.70
2023-01-09T03:09:28.461Z,0.67
2023-01-09T03:11:57.722Z,0.67
2023-01-09T03:14:26.846Z,0.70
2023-01-09T03:16:57.809Z,0.70
2023-01-09T03:19:26.670Z,0.67
2023-01-09T03:21:54.354Z,0.80
2023-01-09T03:24:21.770Z,0.77
2023-01-09T03:26:49.237Z,0.60
2023-01-09T03:29:16.689Z,0.80
2023-01-09T03:31:44.226Z,0.80
2023-01-09T03:34:13.048Z,0.73
2023-01-09T03:36:40.515Z,1.00
2023-01-09T03:39:07.944Z,0.90
2023-01-09T03:41:35.380Z,1.00
2023-01-09T03:44:02.868Z,1.00
2023-01-09T03:46:30.361Z,1.10
2023-01-09T03:48:58.802Z,1.10
2023-01-09T03:51:27.645Z,1.00
2023-01-09T03:53:55.075Z,1.10
2023-01-09T03:56:22.587Z,1.30
2023-01-09T03:58:50.236Z,1.00
2023-01-09T04:01:17.790Z,1.00
2023-01-09T04:03:45.350Z,1.07
2023-01-09T04:06:12.862Z,0.90
2023-01-09T04:08:41.657Z,0.60
2023-01-09T04:11:09.620Z,0.73
2023-01-09T04:13:37.057Z,0.67
2023-01-09T04:16:04.713Z,0.60
2023-01-09T04:18:32.252Z,0.60
2023-01-09T04:20:59.711Z,0.60
2023-01-09T04:23:27.175Z,0.60
2023-01-09T04:25:56.006Z,0.60
2023-01-09T04:28:23.438Z,0.60
2023-01-09T04:30:50.867Z,0.50
2023-01-09T04:33:18.316Z,0.50
2023-01-09T04:35:46.453Z,0.60
2023-01-09T04:38:14.002Z,0.60
2023-01-09T04:40:41.469Z,0.50
2023-01-09T04:43:10.259Z,0.50
2023-01-09T04:45:37.704Z,0.70
2023-01-09T04:48:05.524Z,0.50
2023-01-09T04:50:33.165Z,0.40
2023-01-09T04:53:00.621Z,0.60
2023-01-09T04:55:28.062Z,0.60
2023-01-09T04:57:55.530Z,0.50
2023-01-09T05:00:24.487Z,0.53
2023-01-09T05:02:51.929Z,0.50
2023-01-09T05:05:19.574Z,0.40
2023-01-09T05:07:47.187Z,0.50
2023-01-09T05:10:14.725Z,0.60
2023-01-09T05:12:42.219Z,0.50
2023-01-09T05:15:10.049Z,0.57
2023-01-09T05:17:38.851Z,0.67
2023-01-09T05:20:06.657Z,0.50
2023-01-09T05:22:34.165Z,0.50
2023-01-09T05:25:01.957Z,0.60
2023-01-09T05:27:30.371Z,0.50
2023-01-09T05:29:57.936Z,0.43
2023-01-09T05:32:25.396Z,0.60
2023-01-09T05:34:54.231Z,0.50
2023-01-09T05:37:21.751Z,0.50
2023-01-09T05:39:49.211Z,0.53
2023-01-09T05:42:16.694Z,0.43
2023-01-09T05:44:44.187Z,0.90
2023-01-09T05:47:11.667Z,1.00
2023-01-09T05:49:39.128Z,0.70
2023-01-09T05:52:08.527Z,0.77
2023-01-09T05:54:35.972Z,0.60
2023-01-09T05:57:03.450Z,0.60
2023-01-09T05:59:30.917Z,0.80
2023-01-09T06:01:58.483Z,0.70
2023-01-09T06:04:29.746Z,0.70
2023-01-09T06:06:57.216Z,0.60
2023-01-09T06:09:25.988Z,0.70
2023-01-09T06:11:54.659Z,0.60
2023-01-09T06:14:22.177Z,0.70
2023-01-09T06:16:49.599Z,0.70
2023-01-09T06:19:17.212Z,0.53
2023-01-09T06:21:44.637Z,0.70
2023-01-09T06:24:12.074Z,0.70
2023-01-09T06:26:40.888Z,0.70
2023-01-09T06:29:08.817Z,0.80
2023-01-09T06:31:36.341Z,0.80
2023-01-09T06:34:03.833Z,0.83
2023-01-09T06:36:31.500Z,3.17
2023-01-09T06:38:58.985Z,1.40
2023-01-09T06:41:26.452Z,0.70
2023-01-09T06:43:55.355Z,1.20
2023-01-09T06:46:22.845Z,0.60
2023-01-09T06:48:50.268Z,1.40
2023-01-09T06:51:17.685Z,0.90
2023-01-09T06:53:45.151Z,1.90
2023-01-09T06:56:12.658Z,1.07
2023-01-09T06:58:40.106Z,0.50
2023-01-09T07:01:09.192Z,0.90
2023-01-09T07:03:36.747Z,1.50
2023-01-09T07:06:04.470Z,0.70
2023-01-09T07:08:31.910Z,0.97
2023-01-09T07:10:59.411Z,0.73
2023-01-09T07:13:26.865Z,0.70
2023-01-09T07:15:54.550Z,0.70
2023-01-09T07:18:23.403Z,0.80
2023-01-09T07:20:50.837Z,0.70
2023-01-09T07:23:18.755Z,0.70
2023-01-09T07:25:46.264Z,0.73
2023-01-09T07:28:13.722Z,0.70
2023-01-09T07:30:41.221Z,0.70
2023-01-09T07:33:08.774Z,0.77
2023-01-09T07:35:37.627Z,0.60
2023-01-09T07:38:05.116Z,0.87
2023-01-09T07:40:32.542Z,0.80
2023-01-09T07:43:00.124Z,0.90
2023-01-09T07:45:27.958Z,0.70
2023-01-09T07:47:55.450Z,0.70
2023-01-09T07:50:22.925Z,0.87
2023-01-09T07:52:51.806Z,1.20
2023-01-09T07:55:19.226Z,1.40
2023-01-09T07:57:49.078Z,1.03
2023-01-09T08:00:17.187Z,0.60
2023-01-09T08:02:44.680Z,0.90
2023-01-09T08:05:14.840Z,2.37
2023-01-09T08:07:42.565Z,1.57
2023-01-09T08:10:12.423Z,1.73
2023-01-09T08:12:43.005Z,1.47
2023-01-09T08:15:10.827Z,1.20
2023-01-09T08:17:38.381Z,1.00
2023-01-09T08:20:06.275Z,0.83
2023-01-09T08:22:33.729Z,1.43
2023-01-09T08:25:02.886Z,1.10
2023-01-09T08:27:31.654Z,0.90
2023-01-09T08:29:59.113Z,1.00
2023-01-09T08:32:26.931Z,1.03
2023-01-09T08:34:54.417Z,0.70
2023-01-09T08:37:21.912Z,0.80
2023-01-09T08:39:49.381Z,0.70
2023-01-09T08:42:34.528Z,0.83
2023-01-09T08:45:20.728Z,0.90
2023-01-09T08:47:48.399Z,0.83
2023-01-09T08:50:16.051Z,0.80
2023-01-09T08:52:43.571Z,1.00
2023-01-09T08:55:11.016Z,0.90
2023-01-09T08:57:38.501Z,0.77
2023-01-09T09:00:08.117Z,1.00
2023-01-09T09:02:35.567Z,0.87
2023-01-09T09:05:18.124Z,1.20
2023-01-09T09:07:47.955Z,1.50
2023-01-09T09:10:15.582Z,1.00
2023-01-09T09:12:43.120Z,1.00
2023-01-09T09:15:16.485Z,0.80
2023-01-09T09:18:03.435Z,1.20
2023-01-09T09:20:31.771Z,1.30
2023-01-09T09:22:59.686Z,0.80
2023-01-09T09:25:27.489Z,0.90
2023-01-09T09:27:55.896Z,0.70
2023-01-09T09:30:25.207Z,1.00
2023-01-09T09:32:52.739Z,0.77
2023-01-09T09:35:21.067Z,0.80
2023-01-09T09:37:53.793Z,0.80
2023-01-09T09:40:24.063Z,0.90
2023-01-09T09:43:30.377Z,0.87
2023-01-09T09:46:04.646Z,0.90
2023-01-09T09:48:36.104Z,0.90
2023-01-09T09:51:09.259Z,0.90
2023-01-09T09:53:39.448Z,0.73
2023-01-09T09:56:09.379Z,0.90
2023-01-09T09:58:37.850Z,0.80
2023-01-09T10:01:07.304Z,0.90
2023-01-09T10:03:38.385Z,0.70
2023-01-09T10:06:07.748Z,0.70
2023-01-09T10:08:37.946Z,0.97
2023-01-09T10:11:06.036Z,0.70
2023-01-09T10:13:56.597Z,0.90
2023-01-09T10:16:36.084Z,0.70
2023-01-09T10:19:08.617Z,0.80
2023-01-09T10:21:41.054Z,0.83
2023-01-09T10:24:16.711Z,0.90
2023-01-09T10:26:47.675Z,0.90
2023-01-09T10:29:22.850Z,1.10
2023-01-09T10:31:57.666Z,0.83
2023-01-09T10:34:31.203Z,0.90
2023-01-09T10:37:02.760Z,1.00
2023-01-09T10:39:35.667Z,1.00
2023-01-09T10:42:05.334Z,0.90
2023-01-09T10:44:37.416Z,1.10
2023-01-09T10:47:08.770Z,1.53
2023-01-09T10:49:37.561Z,0.90
2023-01-09T10:52:13.648Z,1.10
2023-01-09T10:54:46.996Z,0.90
2023-01-09T10:57:16.229Z,0.90
2023-01-09T10:59:43.961Z,0.90
2023-01-09T11:02:22.477Z,0.70
2023-01-09T11:04:50.299Z,0.87
2023-01-09T11:07:19.722Z,0.80
2023-01-09T11:09:57.054Z,0.70
2023-01-09T11:12:25.803Z,1.07
2023-01-09T11:14:53.347Z,0.93
2023-01-09T11:17:23.105Z,0.70
2023-01-09T11:20:03.992Z,0.80
2023-01-09T11:22:42.731Z,0.90
2023-01-09T11:25:13.069Z,0.83
2023-01-09T11:27:40.645Z,0.70
2023-01-09T11:30:14.893Z,0.70
2023-01-09T11:32:44.028Z,0.70
2023-01-09T11:35:16.730Z,0.90
2023-01-09T11:37:45.331Z,0.90
2023-01-09T11:40:18.851Z,0.90
2023-01-09T11:43:01.522Z,0.83
2023-01-09T11:45:30.698Z,0.73
2023-01-09T11:48:00.081Z,1.07
2023-01-09T11:50:29.406Z,0.80
2023-01-09T11:53:12.589Z,0.87
2023-01-09T11:55:42.957Z,0.90
2023-01-09T11:58:13.156Z,1.10
2023-01-09T12:00:45.359Z,0.80
2023-01-09T12:03:18.720Z,0.87
2023-01-09T12:05:53.105Z,0.70
2023-01-09T12:08:29.099Z,1.00
2023-01-09T12:11:08.441Z,0.80
2023-01-09T12:13:42.622Z,0.70
2023-01-09T12:16:14.022Z,0.80
2023-01-09T12:18:48.796Z,0.87
2023-01-09T12:21:23.089Z,0.80
2023-01-09T12:23:57.087Z,0.93
2023-01-09T12:26:25.675Z,0.90
2023-01-09T12:29:08.057Z,0.80
2023-01-09T12:31:42.423Z,0.93
2023-01-09T12:34:19.306Z,0.80
2023-01-09T12:36:53.596Z,0.77
2023-01-09T12:39:26.285Z,0.80
2023-01-09T12:42:07.754Z,0.80
2023-01-09T12:44:39.995Z,0.80
2023-01-09T12:47:17.255Z,0.73
2023-01-09T12:49:50.140Z,0.60
2023-01-09T12:52:20.474Z,0.50
2023-01-09T12:54:50.054Z,0.70
2023-01-09T12:57:23.437Z,0.70
2023-01-09T12:59:51.962Z,0.80
2023-01-09T13:02:27.702Z,0.70
2023-01-09T13:04:58.868Z,0.70
2023-01-09T13:07:28.096Z,0.67
2023-01-09T13:09:57.585Z,0.70
2023-01-09T13:12:25.608Z,0.80
2023-01-09T13:14:54.948Z,0.77
2023-01-09T13:17:25.140Z,0.90
2023-01-09T13:19:54.180Z,0.60
2023-01-09T13:22:25.019Z,0.70
2023-01-09T13:25:00.588Z,0.73
2023-01-09T13:27:32.522Z,1.10
2023-01-09T13:30:04.305Z,0.80
2023-01-09T13:32:36.389Z,0.70
2023-01-09T13:35:04.223Z,0.70
2023-01-09T13:37:34.140Z,0.63
2023-01-09T13:40:02.192Z,0.80
2023-01-09T13:42:39.741Z,0.70
2023-01-09T13:45:11.825Z,0.70
2023-01-09T13:47:39.345Z,0.90
2023-01-09T13:50:22.090Z,0.90
2023-01-09T13:52:51.007Z,0.70
2023-01-09T13:55:36.018Z,0.90
2023-01-09T13:58:25.564Z,0.80
2023-01-09T14:00:57.531Z,0.70
2023-01-09T14:03:26.988Z,0.50
2023-01-09T14:06:15.852Z,0.80
2023-01-09T14:08:45.395Z,0.70
2023-01-09T14:11:19.700Z,0.73
2023-01-09T14:13:47.601Z,0.60
2023-01-09T14:16:17.830Z,0.53
2023-01-09T14:18:50.174Z,0.70
2023-01-09T14:21:18.304Z,0.70
2023-01-09T14:23:54.954Z,0.77
2023-01-09T14:26:25.162Z,0.70
2023-01-09T14:28:52.908Z,1.00
2023-01-09T14:31:30.761Z,0.83
2023-01-09T14:34:23.947Z,0.87
2023-01-09T14:37:00.055Z,1.00
2023-01-09T14:39:30.886Z,0.80
2023-01-09T14:42:05.747Z,0.80
2023-01-09T14:44:35.521Z,0.90
2023-01-09T14:47:07.885Z,0.77
2023-01-09T14:49:36.717Z,0.80
2023-01-09T14:52:08.999Z,1.00
2023-01-09T14:54:39.221Z,0.90
2023-01-09T14:57:23.440Z,0.70
2023-01-09T14:59:55.880Z,1.00
2023-01-09T15:02:23.877Z,0.90
2023-01-09T15:04:51.478Z,0.70
2023-01-09T15:07:21.140Z,1.10
2023-01-09T15:09:49.977Z,0.90
2023-01-09T15:12:19.677Z,0.80
2023-01-09T15:14:47.744Z,0.80
2023-01-09T15:17:19.853Z,0.87
2023-01-09T15:19:47.517Z,0.80
2023-01-09T15:22:23.024Z,0.80
2023-01-09T15:24:51.852Z,0.80
2023-01-09T15:27:21.913Z,0.70
2023-01-09T15:29:49.370Z,0.70
2023-01-09T15:32:18.060Z,1.03
2023-01-09T15:34:45.897Z,0.80
2023-01-09T15:37:25.403Z,0.80
2023-01-09T15:39:54.845Z,0.90
2023-01-09T15:42:42.695Z,0.70
2023-01-09T15:45:15.107Z,0.80
2023-01-09T15:47:42.536Z,0.90
2023-01-09T15:50:13.717Z,0.70
2023-01-09T15:52:41.242Z,0.80
2023-01-09T15:55:26.247Z,0.60
2023-01-09T15:57:53.972Z,0.80
2023-01-09T16:00:32.806Z,0.90
2023-01-09T16:03:12.757Z,0.73
2023-01-09T16:05:40.816Z,0.90
2023-01-09T16:08:19.743Z,0.70
2023-01-09T16:10:51.547Z,0.63
2023-01-09T16:13:19.143Z,0.70
2023-01-09T16:15:46.907Z,0.70
2023-01-09T16:18:22.324Z,0.77
2023-01-09T16:20:51.217Z,0.70
2023-01-09T16:23:21.154Z,0.70
2023-01-09T16:25:48.740Z,0.63
2023-01-09T16:28:20.564Z,0.80
2023-01-09T16:30:52.412Z,0.70
2023-01-09T16:33:21.732Z,0.90
2023-01-09T16:35:49.231Z,0.90
2023-01-09T16:38:17.079Z,0.93
2023-01-09T16:41:22.605Z,0.90
2023-01-09T16:43:50.881Z,1.00
2023-01-09T16:46:19.319Z,1.00
2023-01-09T16:48:47.032Z,0.90
2023-01-09T16:51:15.890Z,1.10
2023-01-09T16:53:43.752Z,1.03
2023-01-09T16:56:14.983Z,1.10
2023-01-09T16:58:42.543Z,1.30
2023-01-09T17:01:13.521Z,1.10
2023-01-09T17:03:43.693Z,1.00
2023-01-09T17:06:15.017Z,1.10
2023-01-09T17:08:43.913Z,1.20
2023-01-09T17:11:18.307Z,1.17
2023-01-09T17:13:46.858Z,1.33
2023-01-09T17:16:16.274Z,1.30
2023-01-09T17:18:43.973Z,1.10
2023-01-09T17:21:16.163Z,1.13
2023-01-09T17:23:43.735Z,1.57
2023-01-09T17:26:33.351Z,1.00
2023-01-09T17:29:00.846Z,1.10
2023-01-09T17:31:30.441Z,1.27
2023-01-09T17:33:58.371Z,1.00
2023-01-09T17:36:27.928Z,1.30
2023-01-09T17:38:55.696Z,1.13
2023-01-09T17:41:24.076Z,1.30
2023-01-09T17:43:51.544Z,1.20
2023-01-09T17:46:22.895Z,1.10
2023-01-09T17:48:53.100Z,1.10
2023-01-09T17:51:20.632Z,1.20
2023-01-09T17:53:48.133Z,1.13
2023-01-09T17:56:17.088Z,1.33
2023-01-09T17:58:45.768Z,1.30
2023-01-09T18:01:13.774Z,1.30
2023-01-09T18:03:41.313Z,1.20
2023-01-09T18:06:11.115Z,1.33
2023-01-09T18:08:38.890Z,1.30
2023-01-09T18:11:07.265Z,1.23
2023-01-09T18:13:34.818Z,1.60
2023-01-09T18:16:03.356Z,1.20
2023-01-09T18:18:31.126Z,1.30
2023-01-09T18:20:58.583Z,1.30
2023-01-09T18:23:27.367Z,1.10
2023-01-09T18:25:54.839Z,1.10
2023-01-09T18:28:22.261Z,1.20
2023-01-09T18:30:50.713Z,1.33
2023-01-09T18:33:18.697Z,1.27
2023-01-09T18:35:46.356Z,0.90
2023-01-09T18:38:14.088Z,1.10
2023-01-09T18:40:42.916Z,1.00
2023-01-09T18:43:11.376Z,1.40
2023-01-09T18:45:39.083Z,1.27
2023-01-09T18:48:07.412Z,1.00
2023-01-09T18:50:34.933Z,1.20
2023-01-09T18:53:03.417Z,1.17
2023-01-09T18:55:30.912Z,1.20
2023-01-09T18:57:59.755Z,1.20
2023-01-09T19:00:27.202Z,1.17
2023-01-09T19:02:54.703Z,1.00
2023-01-09T19:05:22.178Z,1.00
2023-01-09T19:07:49.651Z,1.20
2023-01-09T19:10:17.551Z,1.10
2023-01-09T19:12:45.122Z,1.10
2023-01-09T19:15:13.970Z,1.00
2023-01-09T19:17:41.798Z,1.20
2023-01-09T19:20:13.373Z,1.10
2023-01-09T19:22:41.587Z,1.10
2023-01-09T19:25:11.847Z,1.20
2023-01-09T19:27:39.406Z,1.20
2023-01-09T19:30:07.776Z,0.93
2023-01-09T19:32:38.260Z,1.00
2023-01-09T19:35:06.212Z,1.10
2023-01-09T19:37:35.400Z,0.93
2023-01-09T19:40:03.254Z,1.00
2023-01-09T19:42:30.734Z,1.20
2023-01-09T19:44:58.196Z,1.20
2023-01-09T19:47:25.681Z,1.20
2023-01-09T19:49:55.272Z,1.10
2023-01-09T19:52:22.713Z,1.13
2023-01-09T19:54:50.202Z,1.13
2023-01-09T19:57:17.692Z,1.10
2023-01-09T19:59:45.159Z,1.20
2023-01-09T20:02:14.346Z,1.00
2023-01-09T20:04:41.854Z,1.10
2023-01-09T20:07:10.610Z,1.10
2023-01-09T20:09:38.273Z,1.07
2023-01-09T20:12:06.178Z,1.27
2023-01-09T20:14:36.403Z,1.10
2023-01-09T20:17:04.244Z,1.30
2023-01-09T20:19:32.414Z,0.97
2023-01-09T20:22:00.140Z,1.50
2023-01-09T20:24:28.936Z,1.27
2023-01-09T20:26:56.398Z,1.30
2023-01-09T20:29:24.727Z,1.20
2023-01-09T20:31:52.214Z,1.10
2023-01-09T20:34:19.751Z,1.10
2023-01-09T20:36:47.379Z,1.20
2023-01-09T20:39:14.871Z,1.33
2023-01-09T20:41:43.689Z,1.10
2023-01-09T20:44:12.816Z,1.20
2023-01-09T20:46:41.163Z,1.30
2023-01-09T20:49:09.327Z,1.10
2023-01-09T20:51:41.473Z,1.50
2023-01-09T20:54:08.917Z,1.03
2023-01-09T20:56:37.036Z,0.80
2023-01-09T20:59:06.856Z,1.10
2023-01-09T21:01:34.801Z,1.30
2023-01-09T21:04:03.680Z,1.00
2023-01-09T21:06:31.232Z,1.00
2023-01-09T21:08:58.733Z,1.17
2023-01-09T21:11:26.209Z,1.30
2023-01-09T21:13:53.742Z,1.00
2023-01-09T21:16:24.481Z,1.07
2023-01-09T21:18:52.773Z,1.20
2023-01-09T21:21:21.965Z,1.10
2023-01-09T21:23:51.751Z,1.03
2023-01-09T21:26:22.229Z,1.00
2023-01-09T21:28:49.925Z,1.10
2023-01-09T21:31:19.112Z,1.10
2023-01-09T21:33:49.780Z,0.90
2023-01-09T21:36:17.295Z,1.13
2023-01-09T21:38:47.288Z,1.00
2023-01-09T21:41:33.190Z,1.00
2023-01-09T21:44:18.149Z,1.10
2023-01-09T21:46:57.374Z,1.00
2023-01-09T21:49:26.818Z,1.00
2023-01-09T21:51:54.580Z,1.00
2023-01-09T21:54:23.165Z,1.00
2023-01-09T21:56:50.943Z,1.20
2023-01-09T21:59:18.723Z,1.03
2023-01-09T22:01:46.784Z,1.20
2023-01-09T22:04:14.928Z,0.93
2023-01-09T22:06:43.871Z,1.20
2023-01-09T22:09:11.568Z,1.00
2023-01-09T22:11:39.532Z,1.20
2023-01-09T22:14:07.244Z,1.00
2023-01-09T22:16:34.712Z,1.10
2023-01-09T22:19:02.221Z,1.10
2023-01-09T22:21:29.662Z,0.90
2023-01-09T22:24:02.139Z,1.07
2023-01-09T22:26:30.078Z,1.20
2023-01-09T22:28:57.548Z,1.10
2023-01-09T22:31:25.943Z,0.90
2023-01-09T22:33:54.067Z,0.93
2023-01-09T22:36:21.668Z,1.10
2023-01-09T22:38:49.155Z,1.00
2023-01-09T22:41:17.931Z,1.00
2023-01-09T22:43:45.387Z,1.00
2023-01-09T22:46:12.894Z,1.00
2023-01-09T22:48:41.859Z,1.10
2023-01-09T22:51:11.888Z,1.00
2023-01-09T22:53:39.432Z,1.00
2023-01-09T22:56:08.594Z,1.10
2023-01-09T22:58:37.693Z,1.00
2023-01-09T23:01:05.808Z,0.90
2023-01-09T23:03:33.620Z,1.10
2023-01-09T23:06:02.115Z,1.00
2023-01-09T23:08:30.035Z,0.80
2023-01-09T23:10:57.480Z,0.90
2023-01-09T23:13:25.338Z,0.80
2023-01-09T23:15:54.174Z,0.83
2023-01-09T23:18:21.666Z,0.73
2023-01-09T23:20:52.697Z,0.80
2023-01-09T23:23:20.926Z,0.70
2023-01-09T23:25:49.044Z,0.67
2023-01-09T23:28:16.509Z,0.73
2023-01-09T23:30:44.150Z,0.60
2023-01-09T23:33:12.960Z,0.63
2023-01-09T23:35:40.643Z,0.70
2023-01-09T23:38:08.211Z,0.60
2023-01-09T23:40:36.644Z,0.50
2023-01-09T23:43:09.144Z,0.50
2023-01-09T23:45:37.252Z,0.60
2023-01-09T23:48:05.075Z,0.50
2023-01-09T23:50:33.955Z,0.50
2023-01-09T23:53:02.057Z,0.53
2023-01-09T23:55:29.559Z,0.50
2023-01-09T23:57:57.165Z,0.60
